Latest Weather Observations for Willis Island

IDQ60801

Issued at 7:36 pm EST Saturday 20 December 2014 (issued every 30 minutes, with the page automatically refreshed every 10 minutes)

About weather observations | Map of weather stations | Latest weather observations for QLD | Other Formats
Station Details ID: 200283 Name: WILLIS ISLAND Lat: -16.29 Lon: 149.97 Height: 9.29 m
Data from the previous 72 hours. | See also: Recent months at Willis Island
Date/Time
EST
Temp
°C
App
Temp
°C
Dew
Point
Rel
Hum
%
Delta-T
°C
Wind Press
QNH
hPa
Press
MSL
hPa
Rain
since 9 am
mm
Dir
 
Spd
km/h
Gust
km/h
Spd
kts
Gust
kts
20/07:30pm 27.4 30.2 23.0 77 3.0 SE 13 19 7 10 1010.4 - 0.0
20/07:00pm 27.4 30.0 22.7 75 3.2 ESE 13 17 7 9 1010.2 - 0.0
20/06:30pm 27.3 29.9 22.6 75 3.2 E 13 15 7 8 1009.8 - 0.0
20/06:00pm 27.9 29.4 23.1 75 3.3 ESE 20 24 11 13 1009.6 1009.6 0.0
20/05:30pm 28.6 30.8 21.8 66 4.6 SE 13 17 7 9 1009.5 - 0.0
20/05:00pm 29.2 31.4 21.9 64 4.9 SE 13 15 7 8 1009.3 - 0.0
20/04:30pm 29.6 31.7 21.7 62 5.3 SE 13 17 7 9 1009.2 - 0.0
20/04:00pm 29.4 31.5 21.7 63 5.2 SE 13 17 7 9 1009.2 - 0.0
20/03:30pm 30.3 31.9 21.5 59 5.9 ESE 15 20 8 11 1009.1 - 0.0
20/03:00pm 30.1 31.6 21.3 59 5.9 ESE 15 19 8 10 1009.1 1009.1 0.0
20/02:30pm 30.1 31.5 21.1 58 6.0 ESE 15 20 8 11 1009.1 - 0.0
20/02:00pm 29.7 31.6 20.5 57 6.1 ESE 11 15 6 8 1009.5 - 0.0
20/01:30pm 29.4 31.7 21.3 61 5.4 E 11 15 6 8 1009.8 - 0.0
20/01:00pm 30.5 31.8 20.9 56 6.4 ESE 15 20 8 11 1010.0 - 0.0
20/12:30pm 30.4 31.6 21.5 59 6.0 SE 17 20 9 11 1010.2 - 0.0
20/12:00pm 30.4 31.5 21.3 58 6.1 SE 17 20 9 11 1010.6 1010.6 0.0
20/11:30am 30.4 31.8 21.8 60 5.8 SE 17 20 9 11 1011.1 - 0.0
20/11:00am 30.9 33.0 22.4 60 5.8 SE 15 19 8 10 1011.4 - 0.0
20/10:30am 30.3 31.7 21.9 60 5.7 SE 17 19 9 10 1011.6 - 0.0
20/10:00am 29.5 31.7 21.8 63 5.2 SE 13 17 7 9 1011.7 - 0.0
20/09:30am 29.5 31.8 22.1 64 5.0 ESE 13 17 7 9 1011.5 - 0.0
20/09:00am 29.4 31.9 21.7 63 5.2 ESE 11 15 6 8 1011.6 1011.6 0.0
20/08:30am 29.2 31.0 21.8 64 5.0 E 15 17 8 9 1011.4 - 0.0
20/08:00am 29.0 30.5 22.0 66 4.7 E 17 19 9 10 1011.2 - 0.0
20/07:30am 28.5 29.8 21.6 66 4.6 E 17 20 9 11 1011.0 - 0.0
20/07:00am 28.0 29.3 21.7 68 4.2 E 17 20 9 11 1010.9 - 0.0
20/06:30am 27.6 29.0 21.9 71 3.8 E 17 20 9 11 1010.7 - 0.0
20/06:00am 27.0 28.6 22.1 74 3.3 E 17 20 9 11 1010.3 1010.3 0.0
20/05:30am 26.7 28.9 21.9 75 3.2 ENE 13 15 7 8 1010.0 - 0.0
20/05:00am 26.8 29.1 21.4 72 3.6 ENE 11 15 6 8 1010.0 - 0.0
20/04:30am 26.7 28.3 21.4 72 3.5 E 15 17 8 9 1009.6 - 0.0
20/04:00am 26.5 28.1 21.4 73 3.4 E 15 17 8 9 1009.5 - 0.0
20/03:30am 26.5 27.7 21.4 73 3.4 ENE 17 20 9 11 1009.7 - 0.0
20/03:00am 26.4 27.5 21.3 73 3.4 E 17 20 9 11 1009.7 1009.7 0.0
20/02:30am 26.4 27.0 21.1 72 3.5 ENE 19 22 10 12 1009.9 - 0.0
20/02:00am 26.5 27.2 21.2 72 3.5 E 19 20 10 11 1009.9 - 0.0
20/01:30am 26.5 27.2 21.5 74 3.3 E 20 24 11 13 1010.1 - 0.0
20/01:00am 26.5 27.9 21.9 76 3.1 E 17 20 9 11 1010.5 - 0.0
20/12:30am 26.5 27.5 21.7 75 3.2 E 19 22 10 12 1010.8 - 0.0
20/12:00am 26.8 28.1 21.7 73 3.4 E 17 20 9 11 1011.3 1011.3 0.0
 
Date/Time
EST
Temp
°C
App
Temp
°C
Dew
Point
Rel
Hum
%
Delta-T
°C
Wind Press
QNH
hPa
Press
MSL
hPa
Rain
since 9 am
mm
Dir
 
Spd
km/h
Gust
km/h
Spd
kts
Gust
kts
19/11:30pm 26.8 27.9 21.2 71 3.7 E 17 20 9 11 1011.8 - 0.0
19/11:00pm 26.9 27.7 21.3 71 3.7 E 19 22 10 12 1011.9 - 0.0
19/10:30pm 27.0 27.7 21.6 72 3.6 E 20 24 11 13 1011.9 - 0.0
19/10:00pm 26.9 27.8 21.5 72 3.6 ESE 19 22 10 12 1012.1 - 0.0
19/09:30pm 27.0 27.6 21.0 69 4.0 ESE 19 22 10 12 1011.7 - 0.0
19/09:00pm 26.9 28.0 21.2 71 3.8 ESE 17 20 9 11 1011.8 1011.8 0.0
19/08:30pm 26.9 28.4 21.2 71 3.8 ESE 15 19 8 10 1011.5 - 0.0
19/08:00pm 27.0 28.0 21.1 70 3.9 SE 17 20 9 11 1011.3 - 0.0
19/07:30pm 27.2 28.0 21.3 70 3.9 SE 19 22 10 12 1010.9 - 0.0
19/07:00pm 27.1 28.2 21.2 70 3.9 SE 17 20 9 11 1010.4 - 0.0
19/06:30pm 27.2 28.2 21.0 69 4.1 SE 17 20 9 11 1010.2 - 0.0
19/06:00pm 27.5 29.1 20.8 67 4.4 ESE 13 17 7 9 1010.0 1010.0 0.0
19/05:30pm 28.1 29.8 20.9 65 4.8 ESE 13 17 7 9 1009.7 - 0.0
19/05:00pm 29.0 30.1 20.5 60 5.6 SSE 15 19 8 10 1009.4 - 0.0
19/04:30pm 28.9 30.6 20.9 62 5.3 SE 13 17 7 9 1009.3 - 0.0
19/04:00pm 29.6 31.2 20.7 58 5.9 SE 13 17 7 9 1009.2 - 0.0
19/03:30pm 29.7 31.7 20.8 58 5.9 ESE 11 15 6 8 1009.4 - 0.0
19/03:00pm 29.4 31.2 20.3 58 6.0 SSE 11 13 6 7 1009.7 1009.7 0.0
19/02:30pm 30.0 32.0 20.7 57 6.2 SSE 11 15 6 8 1009.9 - 0.0
19/02:00pm 29.7 31.6 20.5 57 6.1 S 11 13 6 7 1010.1 - 0.0
19/01:30pm 29.8 32.6 20.8 58 6.0 SE 7 11 4 6 1010.4 - 0.0
19/01:00pm 29.8 32.6 20.9 59 5.9 S 7 11 4 6 1010.8 - 0.0
19/12:30pm 29.7 31.9 20.3 57 6.2 S 9 11 5 6 1011.0 - 0.0
19/12:00pm 29.7 32.0 19.8 55 6.5 E 7 11 4 6 1011.1 1011.1 0.0
19/11:30am 29.5 30.7 20.6 58 5.9 ENE 15 19 8 10 1010.9 - 0.0
19/11:00am 30.0 31.5 21.3 59 5.8 ENE 15 19 8 10 1010.9 - 0.0
19/10:30am 29.5 31.2 20.9 60 5.7 ENE 13 17 7 9 1011.2 - 0.0
19/10:00am 28.8 30.9 20.1 59 5.7 E 9 11 5 6 1011.7 - 0.0
19/09:30am 29.0 31.4 20.0 58 5.9 E 7 11 4 6 1012.1 - 0.0
19/09:00am 28.9 31.3 20.9 62 5.3 E 9 13 5 7 1012.0 1012.0 0.0
19/08:30am 28.7 30.3 20.7 62 5.3 ENE 13 15 7 8 1011.9 - 0.0
19/08:00am 28.3 29.9 19.9 60 5.5 ENE 11 15 6 8 1012.0 - 0.0
19/07:30am 27.6 28.9 20.8 66 4.5 E 15 19 8 10 1011.8 - 0.0
19/07:00am 27.5 29.2 21.0 67 4.3 ENE 13 19 7 10 1011.6 - 0.0
19/06:30am 27.2 29.2 20.7 67 4.3 E 11 15 6 8 1011.8 - 0.0
19/06:00am 26.5 28.3 20.4 69 4.0 ESE 11 13 6 7 1011.5 1011.5 0.0
19/05:30am 26.0 27.7 20.2 70 3.8 E 11 15 6 8 1011.1 - 0.0
19/05:00am 26.0 27.4 20.3 71 3.7 E 13 15 7 8 1010.9 - 0.0
19/04:30am 25.8 27.5 20.1 71 3.7 ESE 11 13 6 7 1010.8 - 0.0
19/04:00am 26.0 27.9 19.8 68 4.0 E 9 15 5 8 1010.9 - 0.0
19/03:30am 26.1 27.6 19.8 68 4.1 E 11 15 6 8 1010.6 - 0.0
19/03:00am 26.0 27.5 19.7 68 4.1 E 11 13 6 7 1010.8 1010.8 0.0
19/02:30am 26.1 27.0 19.3 66 4.4 E 13 15 7 8 1010.7 - 0.0
19/02:00am 26.0 27.5 19.7 68 4.1 E 11 15 6 8 1011.0 - 0.0
19/01:30am 26.0 27.3 20.2 70 3.8 E 13 15 7 8 1011.3 - 0.0
19/01:00am 26.1 27.2 20.5 71 3.7 E 15 19 8 10 1011.3 - 0.0
19/12:30am 26.4 26.9 20.1 68 4.1 E 17 20 9 11 1011.2 - 0.0
19/12:00am 26.4 27.1 20.4 69 3.9 E 17 20 9 11 1011.5 1011.5 0.0
 
Date/Time
EST
Temp
°C
App
Temp
°C
Dew
Point
Rel
Hum
%
Delta-T
°C
Wind Press
QNH
hPa
Press
MSL
hPa
Rain
since 9 am
mm
Dir
 
Spd
km/h
Gust
km/h
Spd
kts
Gust
kts
18/11:30pm 26.4 27.7 20.1 68 4.1 E 13 17 7 9 1012.1 - 0.0
18/11:00pm 26.5 28.1 19.9 67 4.3 ESE 11 15 6 8 1012.5 - 0.0
18/10:30pm 26.6 27.8 20.7 70 3.9 ESE 15 17 8 9 1012.5 - 0.0
18/10:00pm 26.7 28.0 20.9 70 3.8 ESE 15 17 8 9 1012.4 - 0.0
18/09:30pm 26.7 27.0 20.4 68 4.1 ESE 19 20 10 11 1011.9 - 0.0
18/09:00pm 26.8 28.1 20.9 70 3.9 E 15 19 8 10 1011.5 1011.5 0.0
18/08:30pm 26.9 28.0 21.2 71 3.8 ENE 17 20 9 11 1011.0 - 0.0
18/08:00pm 26.9 28.0 21.2 71 3.8 E 17 20 9 11 1010.7 - 0.0
18/07:30pm 26.8 27.5 21.2 71 3.7 ENE 19 20 10 11 1010.3 - 0.0
18/07:00pm 27.0 28.1 21.3 71 3.8 E 17 20 9 11 1009.9 - 0.0
18/06:30pm 27.0 27.6 21.1 70 3.9 E 19 20 10 11 1009.7 - 0.0
18/06:00pm 27.4 28.2 21.4 70 4.0 E 19 22 10 12 1009.9 1009.9 0.0
18/05:30pm 27.7 28.6 20.9 66 4.5 E 17 19 9 10 1009.7 - 0.0
18/05:00pm 28.1 28.8 20.5 63 5.0 E 17 20 9 11 1009.8 - 0.0
18/04:30pm 28.6 29.7 20.4 61 5.4 E 15 20 8 11 1009.5 - 0.0
18/04:00pm 28.9 29.5 20.2 59 5.7 E 17 20 9 11 1009.5 - 0.0
18/03:30pm 29.2 29.3 20.4 59 5.8 E 20 24 11 13 1009.5 - 0.0
18/03:00pm 29.8 30.8 21.1 59 5.8 E 17 20 9 11 1009.6 1009.6 0.0
18/02:30pm 29.2 29.2 20.2 58 5.9 E 20 24 11 13 1009.9 - 0.0
18/02:00pm 29.8 29.7 20.8 58 6.0 E 22 26 12 14 1010.1 - 0.0
18/01:30pm 30.0 29.4 19.8 54 6.7 ESE 22 26 12 14 1010.6 - 0.0
18/01:00pm 29.7 29.7 20.1 56 6.3 E 20 26 11 14 1010.8 - 0.0
18/12:30pm 29.5 28.9 20.4 58 6.0 E 24 28 13 15 1010.8 - 0.0
18/12:00pm 29.4 28.6 20.0 57 6.2 E 24 28 13 15 1011.0 1011.0 0.0
18/11:30am 29.2 28.6 20.4 59 5.8 E 24 32 13 17 1011.3 - 0.0
18/11:00am 29.5 28.4 20.2 57 6.1 E 26 33 14 18 1011.5 - 0.0
18/10:30am 29.3 28.9 20.2 58 6.0 E 22 26 12 14 1011.8 - 0.0
18/10:00am 29.2 28.6 20.4 59 5.8 E 24 28 13 15 1011.9 - 0.0
18/09:30am 28.7 28.3 20.2 60 5.6 E 22 28 12 15 1012.2 - 0.0
18/09:00am 28.8 28.8 20.1 59 5.7 E 20 26 11 14 1012.4 1012.4 0.0
18/08:30am 28.5 27.7 19.2 57 6.0 E 22 26 12 14 1012.3 - 0.0
18/08:00am 28.4 28.7 20.7 63 5.1 E 20 26 11 14 1012.2 - 0.0
18/07:30am 27.8 27.6 19.8 61 5.2 E 20 24 11 13 1012.1 - 0.0
18/07:00am 27.6 27.0 19.8 62 5.1 E 22 30 12 16 1012.0 - 0.0
18/06:30am 27.1 26.6 19.9 64 4.7 E 22 28 12 15 1011.7 - 0.0
18/06:00am 26.5 26.0 19.9 67 4.3 E 22 28 12 15 1011.1 1011.1 0.0
18/05:30am 26.4 25.7 20.3 69 4.0 E 24 28 13 15 1010.6 - 0.0
18/05:00am 26.2 25.4 20.1 69 4.0 E 24 28 13 15 1010.2 - 0.0
18/04:30am 26.2 25.2 20.4 70 3.8 ENE 26 32 14 17 1009.7 - 0.0
18/04:00am 26.2 25.1 20.2 69 3.9 ENE 26 32 14 17 1009.3 - 0.0
18/03:30am 26.2 25.6 20.4 70 3.8 ENE 24 28 13 15 1009.2 - 0.0
18/03:00am 26.2 26.2 20.9 72 3.5 E 22 28 12 15 1009.3 1009.3 0.0
18/02:30am 26.2 25.5 20.2 69 3.9 ENE 24 28 13 15 1009.4 - 0.0
18/02:00am 26.0 25.4 20.5 71 3.6 ENE 24 26 13 14 1009.5 - 0.0
18/01:30am 26.0 25.6 20.2 70 3.8 E 22 24 12 13 1009.6 - 0.0
18/01:00am 26.1 26.0 20.8 72 3.5 E 22 28 12 15 1009.9 - 0.0
18/12:30am 26.2 26.0 20.6 71 3.7 E 22 24 12 13 1010.4 - 0.0
18/12:00am 26.2 26.7 21.2 74 3.3 E 20 26 11 14 1010.6 1010.6 0.0
 
Date/Time
EST
Temp
°C
App
Temp
°C
Dew
Point
Rel
Hum
%
Delta-T
°C
Wind Press
QNH
hPa
Press
MSL
hPa
Rain
since 9 am
mm
Dir
 
Spd
km/h
Gust
km/h
Spd
kts
Gust
kts
17/11:30pm 26.4 26.4 20.9 72 3.6 E 22 28 12 15 1010.7 - 0.0
17/11:00pm 26.5 25.9 20.6 70 3.9 E 24 28 13 15 1010.6 - 0.0
17/10:30pm 26.6 25.6 20.5 69 4.0 E 26 30 14 16 1010.6 - 0.0
17/10:00pm 26.7 26.6 20.8 70 3.9 E 22 26 12 14 1010.4 - 0.0
17/09:30pm 26.7 26.2 20.8 70 3.9 E 24 28 13 15 1010.2 - 0.0
17/09:00pm 26.7 26.4 20.3 68 4.2 E 22 28 12 15 1009.7 1009.7 0.0
17/08:30pm 26.8 26.1 20.2 67 4.3 E 24 28 13 15 1009.5 - 0.0
17/08:00pm 26.9 26.3 19.8 65 4.6 E 22 26 12 14 1009.4 - 0.0

Other Formats:

Comma delimited format used in spreadsheet applications
http://www.bom.gov.au/fwo/IDQ60801/IDQ60801.94299.axf

JavaScript Object Notation format (JSON) in row-major order
http://www.bom.gov.au/fwo/IDQ60801/IDQ60801.94299.json